createdAt,value
2018-10-18T00:00:42.354Z,1006.99
2018-10-18T00:01:42.353Z,1006.97
2018-10-18T00:02:42.381Z,1006.97
2018-10-18T00:03:42.402Z,1006.99
2018-10-18T00:04:42.419Z,1007.02
2018-10-18T00:05:42.446Z,1007.00
2018-10-18T00:06:42.458Z,1007.01
2018-10-18T00:07:42.554Z,1006.99
2018-10-18T00:09:42.526Z,1006.97
2018-10-18T00:10:42.542Z,1006.96
2018-10-18T00:11:42.571Z,1006.96
2018-10-18T00:12:42.583Z,1006.95
2018-10-18T00:13:42.611Z,1006.99
2018-10-18T00:14:42.630Z,1006.97
2018-10-18T00:15:42.659Z,1006.97
2018-10-18T00:16:42.676Z,1007.01
2018-10-18T00:17:42.700Z,1007.04
2018-10-18T00:18:42.714Z,1007.01
2018-10-18T00:19:42.738Z,1007.03
2018-10-18T00:20:42.756Z,1007.02
2018-10-18T00:21:42.808Z,1007.02
2018-10-18T00:22:42.814Z,1007.03
2018-10-18T00:23:42.819Z,1007.01
2018-10-18T00:24:42.844Z,1007.02
2018-10-18T00:25:42.863Z,1007.01
2018-10-18T00:26:42.881Z,1007.01
2018-10-18T00:27:42.909Z,1007.03
2018-10-18T00:28:42.929Z,1007.01
2018-10-18T00:29:42.952Z,1007.00
2018-10-18T00:30:42.974Z,1007.02
2018-10-18T00:31:42.993Z,1007.00
2018-10-18T00:32:43.014Z,1007.03
2018-10-18T00:33:43.037Z,1007.02
2018-10-18T00:34:43.051Z,1007.05
2018-10-18T00:35:43.096Z,1007.03
2018-10-18T00:36:43.105Z,1007.03
2018-10-18T00:37:43.126Z,1007.04
2018-10-18T00:38:43.136Z,1007.02
2018-10-18T00:39:43.153Z,1007.00
2018-10-18T00:40:43.184Z,1007.04
2018-10-18T00:41:43.197Z,1007.02
2018-10-18T00:42:43.224Z,1007.04
2018-10-18T00:43:43.240Z,1007.07
2018-10-18T00:44:43.261Z,1007.06
2018-10-18T00:45:43.279Z,1007.08
2018-10-18T00:46:43.307Z,1007.07
2018-10-18T00:47:43.333Z,1007.06
2018-10-18T00:48:43.348Z,1007.04
2018-10-18T00:49:43.363Z,1007.07
2018-10-18T00:50:43.381Z,1007.04
2018-10-18T00:51:43.400Z,1007.05
2018-10-18T00:52:43.429Z,1007.04
2018-10-18T00:53:43.453Z,1007.02
2018-10-18T00:54:43.467Z,1007.06
2018-10-18T00:55:43.490Z,1007.03
2018-10-18T00:56:43.517Z,1007.01
2018-10-18T00:57:43.530Z,1007.04
2018-10-18T00:58:43.556Z,1007.02
2018-10-18T00:59:43.576Z,1007.04
2018-10-18T01:00:43.709Z,1006.99
2018-10-18T01:01:43.615Z,1006.99
2018-10-18T01:02:43.637Z,1007.01
2018-10-18T01:03:43.657Z,1007.01
2018-10-18T01:04:43.681Z,1006.98
2018-10-18T01:05:43.704Z,1006.98
2018-10-18T01:06:43.720Z,1007.01
2018-10-18T01:07:43.750Z,1007.02
2018-10-18T01:08:43.765Z,1007.01
2018-10-18T01:09:43.785Z,1007.06
2018-10-18T01:10:43.800Z,1007.00
2018-10-18T01:11:43.898Z,1007.02
2018-10-18T01:12:43.949Z,1007.02
2018-10-18T01:13:43.865Z,1007.01
2018-10-18T01:14:43.889Z,1006.99
2018-10-18T01:15:43.928Z,1006.95
2018-10-18T01:16:43.936Z,1007.00
2018-10-18T01:17:43.986Z,1006.96
2018-10-18T01:18:43.980Z,1006.98
2018-10-18T01:19:43.986Z,1006.92
2018-10-18T01:20:44.008Z,1006.89
2018-10-18T01:21:44.035Z,1006.91
2018-10-18T01:22:44.045Z,1006.91
2018-10-18T01:23:44.082Z,1006.91
2018-10-18T01:24:44.212Z,1006.89
2018-10-18T01:25:44.112Z,1006.89
2018-10-18T01:26:44.139Z,1006.90
2018-10-18T01:27:44.157Z,1006.88
2018-10-18T01:28:44.188Z,1006.88
2018-10-18T01:29:44.201Z,1006.88
2018-10-18T01:30:44.218Z,1006.90
2018-10-18T01:31:44.253Z,1006.87
2018-10-18T01:32:44.257Z,1006.86
2018-10-18T01:33:44.276Z,1006.87
2018-10-18T01:34:44.301Z,1006.84
2018-10-18T01:35:44.319Z,1006.83
2018-10-18T01:36:44.344Z,1006.84
2018-10-18T01:37:44.371Z,1006.79
2018-10-18T01:38:44.387Z,1006.85
2018-10-18T01:39:44.407Z,1006.80
2018-10-18T01:40:44.440Z,1006.81
2018-10-18T01:41:44.468Z,1006.82
2018-10-18T01:42:44.468Z,1006.80
2018-10-18T01:43:44.490Z,1006.81
2018-10-18T01:44:44.500Z,1006.82
2018-10-18T01:45:44.541Z,1006.81
2018-10-18T01:46:44.543Z,1006.80
2018-10-18T01:47:44.578Z,1006.81
2018-10-18T01:48:44.590Z,1006.81
2018-10-18T01:49:44.612Z,1006.80
2018-10-18T01:50:44.625Z,1006.80
2018-10-18T01:51:44.656Z,1006.78
2018-10-18T01:52:44.720Z,1006.82
2018-10-18T01:53:44.701Z,1006.80
2018-10-18T01:54:44.712Z,1006.80
2018-10-18T01:55:44.734Z,1006.79
2018-10-18T01:56:44.763Z,1006.79
2018-10-18T01:57:44.779Z,1006.80
2018-10-18T01:58:44.799Z,1006.80
2018-10-18T01:59:44.820Z,1006.77
2018-10-18T02:00:44.836Z,1006.81
2018-10-18T02:01:44.858Z,1006.76
2018-10-18T02:02:44.881Z,1006.75
2018-10-18T02:03:44.899Z,1006.84
2018-10-18T02:04:45.115Z,1006.78
2018-10-18T02:05:44.949Z,1006.80
2018-10-18T02:06:44.966Z,1006.80
2018-10-18T02:07:44.975Z,1006.79
2018-10-18T02:08:45.037Z,1006.83
2018-10-18T02:09:45.029Z,1006.83
2018-10-18T02:10:45.057Z,1006.88
2018-10-18T02:11:45.065Z,1006.79
2018-10-18T02:12:45.088Z,1006.82
2018-10-18T02:13:45.185Z,1006.82
2018-10-18T02:14:45.169Z,1006.88
2018-10-18T02:15:45.150Z,1006.84
2018-10-18T02:16:45.266Z,1006.89
2018-10-18T02:17:45.187Z,1006.81
2018-10-18T02:18:45.213Z,1006.86
2018-10-18T02:19:45.251Z,1006.88
2018-10-18T02:20:45.288Z,1006.87
2018-10-18T02:21:45.272Z,1006.87
2018-10-18T02:22:45.310Z,1006.83
2018-10-18T02:23:45.401Z,1006.83
2018-10-18T02:24:45.342Z,1006.83
2018-10-18T02:25:45.348Z,1006.86
2018-10-18T02:26:45.377Z,1006.85
2018-10-18T02:27:45.581Z,1006.78
2018-10-18T02:28:45.434Z,1006.77
2018-10-18T02:29:45.444Z,1006.77
2018-10-18T02:30:45.490Z,1006.76
2018-10-18T02:31:45.492Z,1006.75
2018-10-18T02:32:45.534Z,1006.78
2018-10-18T02:33:45.608Z,1006.74
2018-10-18T02:34:45.554Z,1006.76
2018-10-18T02:35:45.559Z,1006.70
2018-10-18T02:36:45.582Z,1006.73
2018-10-18T02:37:45.610Z,1006.72
2018-10-18T02:38:45.621Z,1006.70
2018-10-18T02:39:45.635Z,1006.72
2018-10-18T02:40:45.660Z,1006.74
2018-10-18T02:41:45.684Z,1006.72
2018-10-18T02:42:45.704Z,1006.69
2018-10-18T02:43:45.718Z,1006.66
2018-10-18T02:44:45.749Z,1006.65
2018-10-18T02:45:45.758Z,1006.66
2018-10-18T02:47:45.807Z,1006.64
2018-10-18T02:48:45.820Z,1006.61
2018-10-18T02:49:45.844Z,1006.66
2018-10-18T02:50:45.866Z,1006.61
2018-10-18T02:51:45.883Z,1006.65
2018-10-18T02:52:45.900Z,1006.57
2018-10-18T02:53:45.937Z,1006.60
2018-10-18T02:54:45.944Z,1006.60
2018-10-18T02:55:46.015Z,1006.60
2018-10-18T02:56:45.985Z,1006.61
2018-10-18T02:57:46.013Z,1006.63
2018-10-18T02:58:46.027Z,1006.66
2018-10-18T02:59:46.048Z,1006.62
2018-10-18T03:00:46.069Z,1006.67
2018-10-18T03:01:46.090Z,1006.65
2018-10-18T03:02:46.106Z,1006.69
2018-10-18T03:03:46.143Z,1006.68
2018-10-18T03:04:46.149Z,1006.71
2018-10-18T03:05:46.178Z,1006.71
2018-10-18T03:06:46.195Z,1006.72
2018-10-18T03:07:46.210Z,1006.71
2018-10-18T03:08:46.242Z,1006.73
2018-10-18T03:09:46.248Z,1006.72
2018-10-18T03:10:46.270Z,1006.77
2018-10-18T03:11:46.290Z,1006.70
2018-10-18T03:12:46.315Z,1006.72
2018-10-18T03:13:46.329Z,1006.75
2018-10-18T03:14:46.354Z,1006.75
2018-10-18T03:15:46.396Z,1006.74
2018-10-18T03:16:46.400Z,1006.74
2018-10-18T03:17:46.433Z,1006.75
2018-10-18T03:18:46.435Z,1006.78
2018-10-18T03:19:46.504Z,1006.82
2018-10-18T03:20:46.490Z,1006.80
2018-10-18T03:21:46.497Z,1006.78
2018-10-18T03:22:46.517Z,1006.80
2018-10-18T03:23:46.551Z,1006.81
2018-10-18T03:24:46.555Z,1006.83
2018-10-18T03:25:46.580Z,1006.86
2018-10-18T03:26:46.597Z,1006.82
2018-10-18T03:27:46.618Z,1006.83
2018-10-18T03:28:46.647Z,1006.84
2018-10-18T03:29:46.671Z,1006.84
2018-10-18T03:30:46.678Z,1006.88
2018-10-18T03:31:46.702Z,1006.83
2018-10-18T03:32:46.719Z,1006.81
2018-10-18T03:33:46.747Z,1006.87
2018-10-18T03:34:46.766Z,1006.83
2018-10-18T03:35:46.792Z,1006.87
2018-10-18T03:36:46.800Z,1006.86
2018-10-18T03:37:46.848Z,1006.85
2018-10-18T03:38:46.862Z,1006.88
2018-10-18T03:39:46.868Z,1006.87
2018-10-18T03:40:46.898Z,1006.89
2018-10-18T03:41:46.906Z,1006.89
2018-10-18T03:42:46.924Z,1006.90
2018-10-18T03:43:46.960Z,1006.91
2018-10-18T03:44:46.962Z,1006.87
2018-10-18T03:45:46.990Z,1006.96
2018-10-18T03:46:47.012Z,1006.94
2018-10-18T03:47:47.062Z,1006.96
2018-10-18T03:48:47.045Z,1006.93
2018-10-18T03:49:47.069Z,1006.93
2018-10-18T03:50:47.096Z,1006.94
2018-10-18T03:51:47.107Z,1006.98
2018-10-18T03:52:47.126Z,1007.02
2018-10-18T03:53:47.147Z,1007.03
2018-10-18T03:54:47.166Z,1006.98
2018-10-18T03:55:47.180Z,1006.99
2018-10-18T03:56:47.206Z,1006.99
2018-10-18T03:57:47.231Z,1006.98
2018-10-18T03:58:47.268Z,1006.94
2018-10-18T03:59:47.344Z,1006.97
2018-10-18T04:00:47.288Z,1007.00
2018-10-18T04:01:47.304Z,1007.01
2018-10-18T04:02:47.327Z,1007.02
2018-10-18T04:03:47.361Z,1007.02
2018-10-18T04:04:47.362Z,1007.03
2018-10-18T04:05:47.393Z,1007.02
2018-10-18T04:06:47.418Z,1007.01
2018-10-18T04:07:47.425Z,1007.02
2018-10-18T04:08:47.453Z,1007.06
2018-10-18T04:09:47.490Z,1007.05
2018-10-18T04:11:47.570Z,1007.04
2018-10-18T04:12:47.672Z,1007.05
2018-10-18T04:13:47.548Z,1007.05
2018-10-18T04:14:47.573Z,1007.05
2018-10-18T04:15:47.587Z,1007.07
2018-10-18T04:16:47.608Z,1007.02
2018-10-18T04:17:47.653Z,1007.07
2018-10-18T04:18:47.653Z,1007.06
2018-10-18T04:19:47.673Z,1007.08
2018-10-18T04:20:47.692Z,1007.06
2018-10-18T04:21:47.713Z,1007.08
2018-10-18T04:22:47.731Z,1007.11
2018-10-18T04:23:47.742Z,1007.08
2018-10-18T04:24:47.768Z,1007.09
2018-10-18T04:25:47.795Z,1007.10
2018-10-18T04:26:47.820Z,1007.14
2018-10-18T04:27:47.834Z,1007.13
2018-10-18T04:28:47.961Z,1007.14
2018-10-18T04:29:47.874Z,1007.09
2018-10-18T04:30:47.895Z,1007.08
2018-10-18T04:31:47.906Z,1007.09
2018-10-18T04:32:47.932Z,1007.10
2018-10-18T04:33:47.947Z,1007.10
2018-10-18T04:34:47.966Z,1007.08
2018-10-18T04:35:47.991Z,1007.12
2018-10-18T04:36:48.010Z,1007.09
2018-10-18T04:37:48.028Z,1007.15
2018-10-18T04:38:48.061Z,1007.14
2018-10-18T04:39:48.068Z,1007.12
2018-10-18T04:40:48.091Z,1007.12
2018-10-18T04:41:48.117Z,1007.15
2018-10-18T04:42:48.132Z,1007.17
2018-10-18T04:43:48.157Z,1007.16
2018-10-18T04:44:48.181Z,1007.20
2018-10-18T04:45:48.189Z,1007.18
2018-10-18T04:46:48.349Z,1007.23
2018-10-18T04:47:48.375Z,1007.24
2018-10-18T04:48:48.327Z,1007.22
2018-10-18T04:49:48.268Z,1007.23
2018-10-18T04:50:48.329Z,1007.24
2018-10-18T04:51:48.315Z,1007.24
2018-10-18T04:52:48.345Z,1007.24
2018-10-18T04:53:48.349Z,1007.23
2018-10-18T04:54:48.370Z,1007.27
2018-10-18T04:55:48.393Z,1007.26
2018-10-18T04:56:48.482Z,1007.27
2018-10-18T04:57:48.441Z,1007.27
2018-10-18T04:58:48.449Z,1007.29
2018-10-18T04:59:48.474Z,1007.26
2018-10-18T05:00:48.506Z,1007.25
2018-10-18T05:01:48.544Z,1007.25
2018-10-18T05:02:48.575Z,1007.28
2018-10-18T05:03:48.564Z,1007.22
2018-10-18T05:04:48.580Z,1007.28
2018-10-18T05:05:48.587Z,1007.26
2018-10-18T05:06:48.606Z,1007.27
2018-10-18T05:07:48.638Z,1007.24
2018-10-18T05:08:48.644Z,1007.28
2018-10-18T05:09:48.672Z,1007.27
2018-10-18T05:10:48.684Z,1007.28
2018-10-18T05:11:48.710Z,1007.33
2018-10-18T05:12:48.819Z,1007.32
2018-10-18T05:13:48.747Z,1007.32
2018-10-18T05:14:48.802Z,1007.29
2018-10-18T05:15:48.788Z,1007.25
2018-10-18T05:16:48.807Z,1007.30
2018-10-18T05:17:48.832Z,1007.32
2018-10-18T05:18:48.843Z,1007.30
2018-10-18T05:19:48.859Z,1007.29
2018-10-18T05:20:48.888Z,1007.27
2018-10-18T05:21:48.901Z,1007.26
2018-10-18T05:22:48.937Z,1007.24
2018-10-18T05:23:48.988Z,1007.25
2018-10-18T05:24:48.983Z,1007.29
2018-10-18T05:25:48.992Z,1007.31
2018-10-18T05:26:49.010Z,1007.33
2018-10-18T05:27:49.035Z,1007.32
2018-10-18T05:28:49.046Z,1007.37
2018-10-18T05:29:49.058Z,1007.39
2018-10-18T05:30:49.080Z,1007.36
2018-10-18T05:31:49.201Z,1007.37
2018-10-18T05:32:49.133Z,1007.42
2018-10-18T05:33:49.153Z,1007.35
2018-10-18T05:34:49.169Z,1007.39
2018-10-18T05:35:49.189Z,1007.38
2018-10-18T05:36:49.210Z,1007.42
2018-10-18T05:37:49.305Z,1007.43
2018-10-18T05:38:49.282Z,1007.44
2018-10-18T05:39:49.264Z,1007.41
2018-10-18T05:40:49.286Z,1007.48
2018-10-18T05:41:49.299Z,1007.43
2018-10-18T05:42:49.315Z,1007.47
2018-10-18T05:43:49.357Z,1007.46
2018-10-18T05:44:49.359Z,1007.47
2018-10-18T05:45:49.380Z,1007.43
2018-10-18T05:46:49.519Z,1007.44
2018-10-18T05:47:49.427Z,1007.47
2018-10-18T05:48:49.446Z,1007.46
2018-10-18T05:49:49.465Z,1007.47
2018-10-18T05:50:49.481Z,1007.50
2018-10-18T05:51:49.504Z,1007.45
2018-10-18T05:52:49.527Z,1007.51
2018-10-18T05:53:49.755Z,1007.53
2018-10-18T05:54:49.558Z,1007.55
2018-10-18T05:55:49.579Z,1007.56
2018-10-18T05:56:49.606Z,1007.54
2018-10-18T05:57:49.624Z,1007.57
2018-10-18T05:58:49.641Z,1007.57
2018-10-18T05:59:49.657Z,1007.59
2018-10-18T06:00:49.683Z,1007.61
2018-10-18T06:01:49.702Z,1007.60
2018-10-18T06:02:49.718Z,1007.64
2018-10-18T06:03:49.744Z,1007.65
2018-10-18T06:04:49.768Z,1007.62
2018-10-18T06:05:49.788Z,1007.68
2018-10-18T06:06:49.795Z,1007.70
2018-10-18T06:07:49.817Z,1007.76
2018-10-18T06:08:49.836Z,1007.74
2018-10-18T06:09:49.917Z,1007.79
2018-10-18T06:10:49.872Z,1007.81
2018-10-18T06:11:49.915Z,1007.83
2018-10-18T06:12:49.917Z,1007.89
2018-10-18T06:13:49.933Z,1007.85
2018-10-18T06:14:49.982Z,1007.91
2018-10-18T06:15:49.993Z,1007.91
2018-10-18T06:16:49.995Z,1007.93
2018-10-18T06:17:50.083Z,1007.96
2018-10-18T06:18:50.039Z,1007.99
2018-10-18T06:19:50.055Z,1007.97
2018-10-18T06:20:50.067Z,1008.02
2018-10-18T06:21:50.085Z,1008.00
2018-10-18T06:22:50.176Z,1008.03
2018-10-18T06:25:50.166Z,1008.11
2018-10-18T06:26:50.195Z,1008.13
2018-10-18T06:27:50.219Z,1008.12
2018-10-18T06:28:50.229Z,1008.13
2018-10-18T06:29:50.248Z,1008.17
2018-10-18T06:31:50.292Z,1008.19
2018-10-18T06:32:50.330Z,1008.19
2018-10-18T06:33:50.327Z,1008.22
2018-10-18T06:34:50.351Z,1008.21
2018-10-18T06:35:50.369Z,1008.22
2018-10-18T06:36:50.409Z,1008.22
2018-10-18T06:37:50.402Z,1008.24
2018-10-18T06:38:50.428Z,1008.27
2018-10-18T06:39:50.442Z,1008.27
2018-10-18T06:40:50.459Z,1008.29
2018-10-18T06:41:50.477Z,1008.31
2018-10-18T06:42:50.508Z,1008.33
2018-10-18T06:43:50.531Z,1008.35
2018-10-18T06:44:50.540Z,1008.34
2018-10-18T06:45:50.624Z,1008.33
2018-10-18T06:46:50.660Z,1008.34
2018-10-18T06:47:50.737Z,1008.37
2018-10-18T06:48:50.677Z,1008.35
2018-10-18T06:49:50.647Z,1008.30
2018-10-18T06:50:50.654Z,1008.32
2018-10-18T06:51:50.695Z,1008.31
2018-10-18T06:52:50.700Z,1008.31
2018-10-18T06:53:50.720Z,1008.33
2018-10-18T06:54:50.744Z,1008.30
2018-10-18T06:55:50.749Z,1008.35
2018-10-18T06:56:50.838Z,1008.35
2018-10-18T06:57:50.795Z,1008.32
2018-10-18T06:58:50.838Z,1008.37
2018-10-18T06:59:50.914Z,1008.37
2018-10-18T07:00:50.864Z,1008.36
2018-10-18T07:01:50.873Z,1008.36
2018-10-18T07:02:50.891Z,1008.38
2018-10-18T07:03:50.917Z,1008.39
2018-10-18T07:04:50.932Z,1008.41
2018-10-18T07:05:50.954Z,1008.40
2018-10-18T07:06:50.969Z,1008.39
2018-10-18T07:07:50.986Z,1008.40
2018-10-18T07:08:51.024Z,1008.40
2018-10-18T07:09:51.047Z,1008.38
2018-10-18T07:10:51.090Z,1008.41
2018-10-18T07:11:51.069Z,1008.38
2018-10-18T07:12:51.083Z,1008.39
2018-10-18T07:13:51.111Z,1008.44
2018-10-18T07:14:51.143Z,1008.47
2018-10-18T07:15:51.152Z,1008.48
2018-10-18T07:16:51.175Z,1008.48
2018-10-18T07:17:51.264Z,1008.49
2018-10-18T07:18:51.220Z,1008.53
2018-10-18T07:19:51.225Z,1008.53
2018-10-18T07:20:51.246Z,1008.52
2018-10-18T07:21:51.263Z,1008.60
2018-10-18T07:22:51.299Z,1008.57
2018-10-18T07:23:51.307Z,1008.57
2018-10-18T07:24:51.319Z,1008.58
2018-10-18T07:25:51.337Z,1008.56
2018-10-18T07:26:51.371Z,1008.58
2018-10-18T07:27:51.381Z,1008.54
2018-10-18T07:28:51.402Z,1008.60
2018-10-18T07:29:51.464Z,1008.57
2018-10-18T07:30:51.442Z,1008.59
2018-10-18T07:31:51.468Z,1008.63
2018-10-18T07:32:51.479Z,1008.60
2018-10-18T07:33:51.495Z,1008.59
2018-10-18T07:34:51.523Z,1008.59
2018-10-18T07:35:51.590Z,1008.60
2018-10-18T07:36:51.566Z,1008.62
2018-10-18T07:37:51.657Z,1008.61
2018-10-18T07:38:51.600Z,1008.62
2018-10-18T07:39:51.618Z,1008.63
2018-10-18T07:40:51.632Z,1008.63
2018-10-18T07:41:51.660Z,1008.66
2018-10-18T07:42:51.695Z,1008.63
2018-10-18T07:43:51.701Z,1008.62
2018-10-18T07:44:51.715Z,1008.65
2018-10-18T07:45:51.741Z,1008.64
2018-10-18T07:46:51.819Z,1008.62
2018-10-18T07:47:51.774Z,1008.61
2018-10-18T07:48:51.843Z,1008.61
2018-10-18T07:49:51.816Z,1008.65
2018-10-18T07:50:51.834Z,1008.65
2018-10-18T07:51:51.864Z,1008.68
2018-10-18T07:52:51.950Z,1008.68
2018-10-18T07:53:51.939Z,1008.71
2018-10-18T07:54:51.911Z,1008.67
2018-10-18T07:55:51.934Z,1008.75
2018-10-18T07:56:51.953Z,1008.69
2018-10-18T07:57:51.983Z,1008.69
2018-10-18T07:58:51.991Z,1008.70
2018-10-18T07:59:52.075Z,1008.70
2018-10-18T08:00:52.229Z,1008.72
2018-10-18T08:01:52.053Z,1008.73
2018-10-18T08:02:52.070Z,1008.70
2018-10-18T08:03:52.092Z,1008.70
2018-10-18T08:04:52.105Z,1008.67
2018-10-18T08:05:52.143Z,1008.71
2018-10-18T08:06:52.163Z,1008.71
2018-10-18T08:07:52.189Z,1008.71
2018-10-18T08:08:52.189Z,1008.74
2018-10-18T08:09:52.256Z,1008.71
2018-10-18T08:10:52.236Z,1008.71
2018-10-18T08:11:52.248Z,1008.72
2018-10-18T08:12:52.314Z,1008.71
2018-10-18T08:13:52.299Z,1008.68
2018-10-18T08:14:52.313Z,1008.69
2018-10-18T08:15:52.324Z,1008.73
2018-10-18T08:16:52.415Z,1008.71
2018-10-18T08:17:52.372Z,1008.71
2018-10-18T08:18:52.395Z,1008.72
2018-10-18T08:19:52.415Z,1008.72
2018-10-18T08:20:52.441Z,1008.72
2018-10-18T08:21:52.458Z,1008.71
2018-10-18T08:22:52.467Z,1008.67
2018-10-18T08:23:52.495Z,1008.66
2018-10-18T08:24:52.513Z,1008.67
2018-10-18T08:25:52.528Z,1008.70
2018-10-18T08:26:52.550Z,1008.66
2018-10-18T08:27:52.563Z,1008.66
2018-10-18T08:28:52.584Z,1008.66
2018-10-18T08:29:52.620Z,1008.65
2018-10-18T08:30:52.639Z,1008.67
2018-10-18T08:31:52.732Z,1008.61
2018-10-18T08:32:52.716Z,1008.59
2018-10-18T08:33:52.722Z,1008.67
2018-10-18T08:34:52.711Z,1008.63
2018-10-18T08:35:52.771Z,1008.64
2018-10-18T08:36:52.801Z,1008.64
2018-10-18T08:37:52.935Z,1008.67
2018-10-18T08:38:52.811Z,1008.65
2018-10-18T08:39:52.815Z,1008.64
2018-10-18T08:40:52.832Z,1008.67
2018-10-18T08:41:52.854Z,1008.67
2018-10-18T08:42:52.883Z,1008.70
2018-10-18T08:43:52.918Z,1008.70
2018-10-18T08:44:52.918Z,1008.71
2018-10-18T08:45:52.953Z,1008.66
2018-10-18T08:46:52.952Z,1008.66
2018-10-18T08:47:52.971Z,1008.61
2018-10-18T08:48:53.018Z,1008.64
2018-10-18T08:49:53.065Z,1008.64
2018-10-18T08:50:53.039Z,1008.64
2018-10-18T08:51:53.077Z,1008.68
2018-10-18T08:52:53.087Z,1008.66
2018-10-18T08:53:53.119Z,1008.68
2018-10-18T08:54:53.127Z,1008.70
2018-10-18T08:55:53.151Z,1008.73
2018-10-18T08:56:53.163Z,1008.75
2018-10-18T08:57:53.185Z,1008.72
2018-10-18T08:58:53.194Z,1008.80
2018-10-18T08:59:53.219Z,1008.76
2018-10-18T09:00:53.238Z,1008.78
2018-10-18T09:01:53.256Z,1008.76
2018-10-18T09:02:53.281Z,1008.78
2018-10-18T09:03:53.304Z,1008.73
2018-10-18T09:04:53.323Z,1008.73
2018-10-18T09:05:53.347Z,1008.73
2018-10-18T09:06:53.407Z,1008.72
2018-10-18T09:07:53.385Z,1008.70
2018-10-18T09:08:53.444Z,1008.71
2018-10-18T09:09:53.422Z,1008.69
2018-10-18T09:10:53.455Z,1008.73
2018-10-18T09:11:53.469Z,1008.70
2018-10-18T09:12:53.497Z,1008.72
2018-10-18T09:13:53.508Z,1008.76
2018-10-18T09:14:53.532Z,1008.80
2018-10-18T09:15:53.641Z,1008.79
2018-10-18T09:16:53.570Z,1008.81
2018-10-18T09:17:53.613Z,1008.82
2018-10-18T09:18:53.656Z,1008.78
2018-10-18T09:19:53.642Z,1008.80
2018-10-18T09:20:53.695Z,1008.81
2018-10-18T09:21:53.697Z,1008.80
2018-10-18T09:22:53.709Z,1008.77
2018-10-18T09:23:53.831Z,1008.75
2018-10-18T09:24:53.764Z,1008.77
2018-10-18T09:25:53.760Z,1008.75
2018-10-18T09:26:53.793Z,1008.73
2018-10-18T09:27:53.813Z,1008.70
2018-10-18T09:28:53.833Z,1008.77
2018-10-18T09:29:53.867Z,1008.73
2018-10-18T09:30:53.876Z,1008.72
2018-10-18T09:31:53.894Z,1008.72
2018-10-18T09:32:53.964Z,1008.68
2018-10-18T09:33:53.934Z,1008.71
2018-10-18T09:34:53.959Z,1008.70
2018-10-18T09:35:54.033Z,1008.69
2018-10-18T09:36:54.055Z,1008.68
2018-10-18T09:37:54.075Z,1008.67
2018-10-18T09:38:54.032Z,1008.65
2018-10-18T09:39:54.068Z,1008.67
2018-10-18T09:40:54.087Z,1008.67
2018-10-18T09:41:54.096Z,1008.67
2018-10-18T09:42:54.163Z,1008.67
2018-10-18T09:43:54.140Z,1008.66
2018-10-18T09:44:54.264Z,1008.66
2018-10-18T09:45:54.187Z,1008.64
2018-10-18T09:46:54.203Z,1008.64
2018-10-18T09:47:54.230Z,1008.64
2018-10-18T09:48:54.285Z,1008.64
2018-10-18T09:50:54.299Z,1008.64
2018-10-18T09:51:54.320Z,1008.61
2018-10-18T09:52:54.361Z,1008.65
2018-10-18T09:53:54.361Z,1008.58
2018-10-18T09:54:54.402Z,1008.57
2018-10-18T09:55:54.410Z,1008.56
2018-10-18T09:56:54.452Z,1008.56
2018-10-18T09:57:54.446Z,1008.56
2018-10-18T09:58:54.466Z,1008.54
2018-10-18T09:59:54.505Z,1008.56
2018-10-18T10:00:54.533Z,1008.54
2018-10-18T10:01:54.533Z,1008.56
2018-10-18T10:02:54.549Z,1008.54
2018-10-18T10:03:54.568Z,1008.56
2018-10-18T10:04:54.594Z,1008.57
2018-10-18T10:05:54.617Z,1008.58
2018-10-18T10:06:54.675Z,1008.60
2018-10-18T10:07:54.694Z,1008.61
2018-10-18T10:08:54.675Z,1008.63
2018-10-18T10:09:54.699Z,1008.65
2018-10-18T10:10:54.719Z,1008.66
2018-10-18T10:11:54.751Z,1008.65
2018-10-18T10:12:54.765Z,1008.65
2018-10-18T10:13:54.789Z,1008.68
2018-10-18T10:14:54.806Z,1008.65
2018-10-18T10:15:54.866Z,1008.63
2018-10-18T10:16:54.861Z,1008.69
2018-10-18T10:17:54.890Z,1008.65
2018-10-18T10:18:54.930Z,1008.65
2018-10-18T10:19:54.920Z,1008.68
2018-10-18T10:20:54.934Z,1008.65
2018-10-18T10:21:54.963Z,1008.65
2018-10-18T10:22:54.990Z,1008.65
2018-10-18T10:23:55.005Z,1008.66
2018-10-18T10:24:55.063Z,1008.66
2018-10-18T10:25:55.049Z,1008.65
2018-10-18T10:26:55.065Z,1008.66
2018-10-18T10:27:55.082Z,1008.68
2018-10-18T10:28:55.108Z,1008.66
2018-10-18T10:29:55.132Z,1008.67
2018-10-18T10:30:55.205Z,1008.66
2018-10-18T10:31:55.276Z,1008.69
2018-10-18T10:32:55.296Z,1008.66
2018-10-18T10:33:55.229Z,1008.69
2018-10-18T10:34:55.254Z,1008.69
2018-10-18T10:35:55.263Z,1008.68
2018-10-18T10:36:55.315Z,1008.68
2018-10-18T10:37:55.315Z,1008.69
2018-10-18T10:38:55.345Z,1008.69
2018-10-18T10:39:55.392Z,1008.67
2018-10-18T10:40:55.384Z,1008.66
2018-10-18T10:41:55.454Z,1008.65
2018-10-18T10:42:55.449Z,1008.66
2018-10-18T10:43:55.446Z,1008.60
2018-10-18T10:44:55.476Z,1008.59
2018-10-18T10:45:55.510Z,1008.59
2018-10-18T10:46:55.502Z,1008.59
2018-10-18T10:47:55.577Z,1008.58
2018-10-18T10:48:55.571Z,1008.59
2018-10-18T10:49:55.587Z,1008.53
2018-10-18T10:50:55.639Z,1008.58
2018-10-18T10:51:55.641Z,1008.57
2018-10-18T10:52:55.643Z,1008.54
2018-10-18T10:53:55.724Z,1008.56
2018-10-18T10:54:55.685Z,1008.55
2018-10-18T10:55:55.741Z,1008.54
2018-10-18T10:56:55.742Z,1008.52
2018-10-18T10:57:55.812Z,1008.50
2018-10-18T10:58:55.819Z,1008.48
2018-10-18T10:59:55.817Z,1008.45
2018-10-18T11:00:55.819Z,1008.44
2018-10-18T11:01:55.872Z,1008.45
2018-10-18T11:02:55.907Z,1008.46
2018-10-18T11:03:55.914Z,1008.46
2018-10-18T11:04:55.928Z,1008.44
2018-10-18T11:05:55.974Z,1008.37
2018-10-18T11:06:56.031Z,1008.38
2018-10-18T11:07:56.056Z,1008.43
2018-10-18T11:08:56.070Z,1008.47
2018-10-18T11:09:56.045Z,1008.53
2018-10-18T11:10:56.135Z,1008.55
2018-10-18T11:11:56.169Z,1008.50
2018-10-18T11:12:56.127Z,1008.47
2018-10-18T11:13:56.164Z,1008.44
2018-10-18T11:14:56.262Z,1008.40
2018-10-18T11:15:56.196Z,1008.38
2018-10-18T11:16:56.275Z,1008.34
2018-10-18T11:17:56.410Z,1008.35
2018-10-18T11:18:56.280Z,1008.35
2018-10-18T11:19:56.339Z,1008.35
2018-10-18T11:20:56.343Z,1008.29
2018-10-18T11:21:56.360Z,1008.27
2018-10-18T11:22:56.392Z,1008.28
2018-10-18T11:23:56.445Z,1008.25
2018-10-18T11:24:56.531Z,1008.19
2018-10-18T11:25:56.497Z,1008.18
2018-10-18T11:26:56.530Z,1008.17
2018-10-18T11:27:56.509Z,1008.17
2018-10-18T11:28:56.533Z,1008.16
2018-10-18T11:29:56.634Z,1008.17
2018-10-18T11:30:56.595Z,1008.12
2018-10-18T11:31:56.622Z,1008.13
2018-10-18T11:32:56.709Z,1008.10
2018-10-18T11:33:56.682Z,1008.10
2018-10-18T11:34:56.684Z,1008.10
2018-10-18T11:35:56.773Z,1008.07
2018-10-18T11:36:56.740Z,1008.05
2018-10-18T11:37:56.815Z,1008.09
2018-10-18T11:38:56.788Z,1008.13
2018-10-18T11:39:56.805Z,1008.09
2018-10-18T11:40:56.846Z,1008.06
2018-10-18T11:41:56.885Z,1008.08
2018-10-18T11:42:56.884Z,1008.07
2018-10-18T11:43:56.940Z,1008.07
2018-10-18T11:44:56.934Z,1008.08
2018-10-18T11:45:56.960Z,1008.09
2018-10-18T11:46:56.989Z,1008.10
2018-10-18T11:47:57.045Z,1008.07
2018-10-18T11:48:57.031Z,1008.10
2018-10-18T11:49:57.094Z,1008.04
2018-10-18T11:50:57.084Z,1008.03
2018-10-18T11:51:57.164Z,1008.04
2018-10-18T11:52:57.135Z,1008.05
2018-10-18T11:53:57.170Z,1008.06
2018-10-18T11:54:57.190Z,1008.08
2018-10-18T11:55:57.260Z,1008.04
2018-10-18T11:56:57.239Z,1008.07
2018-10-18T11:57:57.257Z,1008.10
2018-10-18T11:58:57.326Z,1008.07
2018-10-18T11:59:57.309Z,1008.08
2018-10-18T12:00:57.332Z,1008.05
2018-10-18T12:01:57.384Z,1008.03
2018-10-18T12:02:57.381Z,1008.02
2018-10-18T12:03:57.491Z,1008.01
2018-10-18T12:04:57.458Z,1008.00
2018-10-18T12:05:57.443Z,1008.00
2018-10-18T12:06:57.489Z,1007.97
2018-10-18T12:07:57.539Z,1007.97
2018-10-18T12:08:57.524Z,1007.97
2018-10-18T12:09:57.550Z,1008.00
2018-10-18T12:10:57.621Z,1008.00
2018-10-18T12:11:57.592Z,1008.00
2018-10-18T12:12:57.613Z,1007.95